Grizzly Air Cargo 5123


PANC
Ted Stevens Anchorage International Airport
Anchorage, Alaska, US
CYVR
Vancouver International Airport
Vancouver, , CA

Activity Log

Date Flight Route Aircraft Duration
06/29/2019 GRZ517 MDO J804R FRIED TR19 YZP J523 YZT WHSLR5 B738 3h 00m
06/27/2019 GRZ517 MDO J804R FRIED TR19 YZP J523 YZT WHSLR5 B738 3h 02m

Route Details

Aircraft Information
Primary: Boeing 737-800BCF
Backup: Boeing 727-200F
Route Data
Distance: 1154nm
Sched. Duration: 2h 48m
Avg. Duration: 3h 00m (+53m)
Times Flown: 2
Recm'd Route: MDO J804R FRIED TR19 YZP J523 YZT WHSLR5
Planned Altitude: 35,000ft
Origin Wx: PANC 261953Z 07004KT 10SM FEW005 FEW200 M12/M14 A3010 RMK AO2 SLP199 I1000 T11221139
Dest. Wx: CYVR 262000Z 09010KT 20SM FEW044 BKN064 BKN150 07/01 A2960 RMK SC1SC7AS1 SC TR AS TR SLP024
Notes:

Financial History
Total Freight: 58,080lbs
Average Load: 29,040lbs/flt
Fuel Used: 30,417lbs
Avg. Fuel Used: 15,209lbs/flt
Fuel Expense: $37,717
Avg. Fuel Expense: $18,859
Avg. Fuel Cost: $1.24/lbs
Total Gross Income: $81,893
Pilot Pay: $458
Total Expenses: $8,948
Total Revenue: $33,785
Average Revenue: $40,946.40